Time;durP1;ratioP1;P1;durP2;ratioP2;P2;SDS_P1;SDS_P2;PMS_P1;PMS_P2;Temp;Humidity;BMP_temperature;BMP_pressure;BME280_temperature;BME280_humidity;BME280_pressure;Samples;Min_cycle;Max_cycle;Signal;HPM_P1;HPM_P2
2021/06/25 00:00:19;;;;;;;27.55;9.80;;;;;;;21.87;100.00;97415.41;5031912;28;20090;-83
2021/06/25 00:02:44;;;;;;;30.00;10.68;;;;;;;21.89;100.00;97426.19;5032728;28;20033;-83
2021/06/25 00:05:10;;;;;;;29.67;10.77;;;;;;;22.05;100.00;97453.44;5032288;28;20467;-84
2021/06/25 00:07:37;;;;;;;24.58;10.35;;;;;;;21.73;100.00;97402.47;5033087;28;20092;-84
2021/06/25 00:10:05;;;;;;;29.38;10.27;;;;;;;21.73;100.00;97405.19;5032625;28;20053;-84
2021/06/25 00:12:31;;;;;;;28.15;11.35;;;;;;;21.79;100.00;97433.59;5033640;28;20041;-84
2021/06/25 00:14:56;;;;;;;22.90;10.50;;;;;;;21.66;100.00;97412.31;5035124;28;20553;-83
2021/06/25 00:17:22;;;;;;;29.77;10.40;;;;;;;21.78;100.00;97429.19;5049262;28;20033;-84
2021/06/25 00:19:48;;;;;;;19.98;9.18;;;;;;;21.70;100.00;97407.38;5033044;28;20029;-84
2021/06/25 00:22:14;;;;;;;31.55;10.18;;;;;;;21.81;100.00;97420.69;5031953;28;20112;-84
2021/06/25 00:24:39;;;;;;;31.88;10.23;;;;;;;21.69;100.00;97395.63;5033403;28;20057;-83
2021/06/25 00:27:05;;;;;;;29.20;9.38;;;;;;;21.82;100.00;97414.22;5049878;28;20037;-83
2021/06/25 00:29:31;;;;;;;27.60;9.80;;;;;;;21.82;100.00;97417.78;5033600;28;20036;-83
2021/06/25 00:31:56;;;;;;;26.23;10.70;;;;;;;21.71;100.00;97390.91;5049322;28;20026;-85
2021/06/25 00:34:22;;;;;;;37.78;9.38;;;;;;;21.66;100.00;97387.81;5032140;28;20040;-83
2021/06/25 00:36:47;;;;;;;23.27;9.32;;;;;;;21.66;100.00;97389.69;5032967;28;20112;-84
2021/06/25 00:39:13;;;;;;;21.30;9.10;;;;;;;21.67;100.00;97394.97;5032295;28;20033;-83
2021/06/25 00:41:39;;;;;;;21.67;9.18;;;;;;;21.70;100.00;97397.34;5033008;28;20095;-84
2021/06/25 00:44:17;;;;;;;21.73;9.27;;;;;;;21.70;100.00;97404.66;5032266;28;20046;-83
2021/06/25 00:46:43;;;;;;;20.92;8.40;;;;;;;21.57;100.00;97391.53;5048801;28;20027;-82
2021/06/25 00:49:08;;;;;;;24.33;8.27;;;;;;;21.68;100.00;97412.16;5031670;28;20033;-83
2021/06/25 00:51:34;;;;;;;26.05;8.50;;;;;;;21.69;100.00;97414.69;5031782;28;20022;-83
2021/06/25 00:53:59;;;;;;;19.30;8.23;;;;;;;21.57;100.00;97396.97;5049537;28;20071;-83
2021/06/25 00:56:25;;;;;;;34.35;8.50;;;;;;;21.50;100.00;97377.72;5048083;28;20021;-83
2021/06/25 00:58:51;;;;;;;20.58;8.20;;;;;;;21.58;100.00;97396.81;5031469;28;20018;-83
2021/06/25 01:01:17;;;;;;;17.38;7.43;;;;;;;21.35;100.00;97354.91;5030524;28;20026;-83
2021/06/25 01:03:43;;;;;;;30.58;8.23;;;;;;;21.47;100.00;97386.22;5047653;28;20473;-83
2021/06/25 01:06:09;;;;;;;24.85;8.30;;;;;;;21.19;100.00;97337.72;5031677;28;20497;-82
2021/06/25 01:08:38;;;;;;;30.00;8.80;;;;;;;21.61;100.00;97403.81;5031828;28;20103;-82
2021/06/25 01:11:04;;;;;;;20.80;7.53;;;;;;;21.47;100.00;97397.13;5048436;28;20017;-83
2021/06/25 01:13:30;;;;;;;25.95;8.55;;;;;;;21.38;100.00;97391.84;5049502;28;20029;-84
2021/06/25 01:15:56;;;;;;;27.85;8.50;;;;;;;21.43;100.00;97406.66;5050047;28;20025;-86
2021/06/25 01:18:21;;;;;;;20.05;7.10;;;;;;;21.20;100.00;97362.00;5033737;28;20520;-86
2021/06/25 01:20:47;;;;;;;25.25;7.63;;;;;;;21.46;100.00;97411.78;5033188;28;20025;-85
2021/06/25 01:23:13;;;;;;;21.50;7.15;;;;;;;21.35;100.00;97408.50;5050447;28;20553;-87
2021/06/25 01:25:39;;;;;;;22.30;7.38;;;;;;;21.43;100.00;97423.00;5050473;28;20497;-84
2021/06/25 01:28:07;;;;;;;29.40;7.30;;;;;;;21.40;100.00;97417.03;5048047;28;20022;-84
2021/06/25 01:30:41;;;;;;;21.50;6.80;;;;;;;21.20;100.00;97388.34;5031824;28;20037;-84
2021/06/25 01:33:09;;;;;;;25.58;6.88;;;;;;;21.35;100.00;97420.22;5032351;28;20024;-84
2021/06/25 01:35:35;;;;;;;26.60;6.40;;;;;;;21.30;100.00;97417.16;5032448;28;20112;-83
2021/06/25 01:38:01;;;;;;;29.88;7.93;;;;;;;21.31;100.00;97418.00;5031838;28;20114;-84
2021/06/25 01:40:27;;;;;;;20.67;6.63;;;;;;;21.20;100.00;97404.69;5031860;28;20065;-84
2021/06/25 01:42:52;;;;;;;18.95;6.07;;;;;;;21.12;100.00;97396.50;5048616;28;20508;-84
2021/06/25 01:45:20;;;;;;;16.98;6.03;;;;;;;21.15;100.00;97401.63;5032891;28;20041;-84
2021/06/25 01:47:47;;;;;;;22.38;6.32;;;;;;;20.88;100.00;97356.44;5048587;28;20032;-84
2021/06/25 01:50:16;;;;;;;28.67;6.82;;;;;;;21.21;100.00;97417.28;5031729;28;20055;-84
2021/06/25 01:52:47;;;;;;;21.88;6.40;;;;;;;21.08;100.00;97402.28;5031984;28;20546;-84
2021/06/25 01:55:13;;;;;;;20.63;5.97;;;;;;;21.16;100.00;97414.22;5048793;28;20064;-84
2021/06/25 01:57:39;;;;;;;22.60;6.80;;;;;;;21.18;100.00;97413.03;5032017;28;20036;-84
2021/06/25 02:00:06;;;;;;;18.67;6.65;;;;;;;21.12;100.00;97413.69;5032204;28;20489;-84
2021/06/25 02:02:32;;;;;;;19.80;6.93;;;;;;;21.02;100.00;97402.91;5030945;28;20029;-84
2021/06/25 02:04:58;;;;;;;27.58;6.60;;;;;;;20.85;100.00;97378.53;5031458;28;20029;-84
2021/06/25 02:07:23;;;;;;;19.77;6.75;;;;;;;20.71;100.00;97360.94;5030704;28;20554;-84
2021/06/25 02:09:49;;;;;;;23.23;7.10;;;;;;;20.76;100.00;97365.91;5031303;28;20029;-84
2021/06/25 02:12:14;;;;;;;27.45;7.75;;;;;;;20.81;100.00;97399.75;5032095;28;20034;-84
2021/06/25 02:14:40;;;;;;;20.17;7.05;;;;;;;20.83;100.00;97403.13;5031709;28;20041;-84
2021/06/25 02:17:06;;;;;;;23.13;7.20;;;;;;;20.82;100.00;97396.00;5047969;28;20032;-84
2021/06/25 02:19:31;;;;;;;22.15;7.70;;;;;;;20.62;100.00;97364.63;5031583;28;20033;-84
2021/06/25 02:21:57;;;;;;;23.45;6.43;;;;;;;20.79;100.00;97401.78;5032531;28;20112;-84
2021/06/25 02:24:24;;;;;;;21.85;7.05;;;;;;;20.55;100.00;97360.84;5031406;28;20481;-84
2021/06/25 02:26:49;;;;;;;19.48;7.63;;;;;;;20.72;100.00;97400.72;5048033;28;20037;-84
2021/06/25 02:29:15;;;;;;;21.08;7.13;;;;;;;20.76;100.00;97417.56;5031672;28;20504;-84
2021/06/25 02:31:40;;;;;;;31.00;7.93;;;;;;;20.78;100.00;97421.81;5047156;28;20025;-84
2021/06/25 02:34:06;;;;;;;19.67;6.47;;;;;;;20.60;100.00;97406.59;5030562;28;20018;-84
2021/06/25 02:36:32;;;;;;;27.45;8.18;;;;;;;20.51;100.00;97409.25;5031327;28;20029;-84
2021/06/25 02:38:57;;;;;;;24.25;7.80;;;;;;;20.42;100.00;97406.66;5030621;28;20037;-82
2021/06/25 02:41:23;;;;;;;24.63;7.25;;;;;;;20.40;100.00;97412.22;5031103;28;20505;-84
2021/06/25 02:43:48;;;;;;;20.67;6.75;;;;;;;20.49;100.00;97415.84;5031242;28;20548;-84
2021/06/25 02:46:15;;;;;;;21.92;7.10;;;;;;;20.39;100.00;97404.25;5046980;28;20025;-84
2021/06/25 02:48:40;;;;;;;23.80;6.97;;;;;;;20.29;100.00;97387.19;5030796;28;20033;-84
2021/06/25 02:51:06;;;;;;;25.00;7.85;;;;;;;20.33;100.00;97400.28;5030271;28;20018;-83
2021/06/25 02:53:31;;;;;;;29.55;7.63;;;;;;;20.36;100.00;97413.56;5047706;28;20025;-83
2021/06/25 02:55:57;;;;;;;27.42;7.60;;;;;;;20.34;100.00;97406.56;5046688;28;20060;-83
2021/06/25 02:58:24;;;;;;;26.92;8.10;;;;;;;20.26;100.00;97390.22;5031058;28;20032;-84
2021/06/25 03:00:50;;;;;;;24.90;7.32;;;;;;;20.33;100.00;97400.28;5046752;28;21758;-84
2021/06/25 03:03:17;;;;;;;22.95;7.75;;;;;;;20.39;100.00;97407.81;5030191;28;20026;-84
2021/06/25 03:05:42;;;;;;;19.20;7.95;;;;;;;20.27;100.00;97384.59;5030513;28;20109;-84
2021/06/25 03:08:08;;;;;;;21.63;8.63;;;;;;;20.20;100.00;97372.66;5031111;28;20044;-84
2021/06/25 03:10:34;;;;;;;25.70;9.18;;;;;;;20.26;100.00;97366.63;5047065;28;20062;-83
2021/06/25 03:12:59;;;;;;;26.70;9.00;;;;;;;20.55;100.00;97409.75;5030995;28;20048;-84
2021/06/25 03:15:25;;;;;;;42.65;9.85;;;;;;;20.51;100.00;97397.53;5033943;28;20116;-83
2021/06/25 03:17:50;;;;;;;23.20;8.70;;;;;;;20.60;100.00;97417.44;5050929;28;20136;-83
2021/06/25 03:20:16;;;;;;;22.77;8.20;;;;;;;20.51;100.00;97387.50;5033681;28;20041;-84
2021/06/25 03:22:42;;;;;;;21.00;7.55;;;;;;;20.62;100.00;97405.41;5034538;28;20126;-84
2021/06/25 03:25:08;;;;;;;37.90;7.70;;;;;;;20.63;100.00;97392.66;5050858;28;20029;-84
2021/06/25 03:27:35;;;;;;;26.58;7.90;;;;;;;20.72;100.00;97391.69;5033884;28;20029;-84
2021/06/25 03:30:01;;;;;;;21.75;7.03;;;;;;;20.80;100.00;97408.91;5034696;28;20052;-84
2021/06/25 03:32:26;;;;;;;17.42;6.82;;;;;;;20.81;100.00;97396.16;5051407;28;20095;-84
2021/06/25 03:34:52;;;;;;;30.33;7.93;;;;;;;20.87;100.00;97390.94;5034219;28;20032;-83
2021/06/25 03:37:18;;;;;;;27.80;8.13;;;;;;;21.03;100.00;97410.06;5034267;28;20064;-83
2021/06/25 03:39:43;;;;;;;32.47;7.55;;;;;;;21.01;100.00;97403.91;5050066;28;20057;-83
2021/06/25 03:42:09;;;;;;;28.48;7.63;;;;;;;20.89;100.00;97352.69;5033214;28;20076;-84
2021/06/25 03:44:34;;;;;;;21.35;7.20;;;;;;;21.27;100.00;97401.16;5034147;28;20033;-84
2021/06/25 03:47:00;;;;;;;31.05;8.13;;;;;;;20.97;100.00;97333.69;5034647;28;20471;-85
2021/06/25 03:49:26;;;;;;;24.10;8.20;;;;;;;21.48;100.00;97387.94;5050604;28;20039;-85
2021/06/25 03:51:52;;;;;;;21.52;7.80;;;;;;;21.54;100.00;97402.75;5033195;28;20044;-84
2021/06/25 03:54:17;;;;;;;22.73;7.97;;;;;;;21.59;100.00;97376.72;5033714;28;20432;-83
2021/06/25 03:56:44;;;;;;;21.35;7.40;;;;;;;21.64;100.00;97378.97;5032683;28;20521;-83
2021/06/25 03:59:09;;;;;;;25.45;7.80;;;;;;;21.97;100.00;97409.81;5034825;28;20451;-84
2021/06/25 04:01:35;;;;;;;32.90;8.93;;;;;;;22.08;99.33;97413.09;5032258;28;20033;-84
2021/06/25 04:04:01;;;;;;;30.08;9.98;;;;;;;22.07;98.19;97405.94;5050002;28;20443;-85
2021/06/25 04:06:26;;;;;;;32.35;10.52;;;;;;;22.16;98.12;97414.94;5034048;28;20037;-84
2021/06/25 04:08:52;;;;;;;65.07;11.68;;;;;;;22.33;97.17;97433.03;5034357;28;20124;-84
2021/06/25 04:11:18;;;;;;;44.40;11.25;;;;;;;22.43;96.08;97422.78;5032572;28;20033;-85
2021/06/25 04:13:43;;;;;;;32.67;10.45;;;;;;;22.58;96.58;97437.41;5033853;28;20055;-85
2021/06/25 04:16:12;;;;;;;38.33;11.20;;;;;;;22.57;94.34;97411.19;5033074;28;20026;-81
2021/06/25 04:18:37;;;;;;;30.52;10.25;;;;;;;22.54;93.38;97386.13;5049685;28;20061;-83
2021/06/25 04:21:03;;;;;;;33.25;9.82;;;;;;;22.67;93.09;97409.13;5035161;28;20079;-83
2021/06/25 04:23:29;;;;;;;42.83;10.93;;;;;;;22.93;91.92;97429.88;5052653;28;20485;-84
2021/06/25 04:25:54;;;;;;;36.38;10.45;;;;;;;23.03;90.78;97425.06;5032377;28;20037;-82
2021/06/25 04:28:21;;;;;;;28.58;9.85;;;;;;;22.86;91.19;97418.81;5032790;28;20485;-81
2021/06/25 04:30:46;;;;;;;28.90;10.23;;;;;;;22.95;91.73;97414.19;5032595;28;20033;-81
2021/06/25 04:33:13;;;;;;;34.13;9.82;;;;;;;22.81;90.12;97363.06;5032969;28;20083;-82
2021/06/25 04:35:40;;;;;;;33.40;9.23;;;;;;;23.28;90.67;97412.19;5031756;28;20064;-82
2021/06/25 04:38:06;;;;;;;35.35;10.25;;;;;;;23.23;89.82;97407.25;5033977;28;20037;-84
2021/06/25 04:40:32;;;;;;;39.58;10.13;;;;;;;23.48;88.33;97416.22;5032552;28;20079;-82
2021/06/25 04:42:58;;;;;;;31.55;9.90;;;;;;;23.49;87.78;97415.19;5032291;28;20416;-81
2021/06/25 04:45:24;;;;;;;40.60;10.57;;;;;;;23.61;87.23;97413.75;5049104;28;20105;-81
2021/06/25 04:47:49;;;;;;;46.28;10.82;;;;;;;23.83;87.16;97434.78;5034242;28;20144;-80
2021/06/25 04:50:15;;;;;;;44.80;10.70;;;;;;;23.83;86.43;97429.34;5034211;28;20112;-79
2021/06/25 04:52:40;;;;;;;41.45;10.48;;;;;;;24.20;84.21;97436.78;5033949;28;20037;-79
2021/06/25 04:55:07;;;;;;;50.42;9.75;;;;;;;24.67;82.44;97440.13;5048452;28;20398;-79
2021/06/25 04:57:33;;;;;;;40.55;10.80;;;;;;;25.43;78.06;97436.25;5032041;28;20098;-79
2021/06/25 04:59:59;;;;;;;31.75;11.00;;;;;;;26.08;72.73;97419.75;5033109;28;20021;-79
2021/06/25 05:02:24;;;;;;;39.47;10.07;;;;;;;26.77;68.43;97431.81;5048360;28;20068;-79
2021/06/25 05:04:50;;;;;;;41.45;11.55;;;;;;;28.24;64.00;97436.84;5032539;28;20025;-79
2021/06/25 05:07:16;;;;;;;33.67;9.02;;;;;;;29.16;58.95;97425.06;5048558;28;20029;-83
2021/06/25 05:09:41;;;;;;;32.65;8.43;;;;;;;29.91;55.87;97386.66;5029905;28;20033;-79
2021/06/25 05:12:07;;;;;;;34.85;9.23;;;;;;;31.00;52.75;97420.31;5046719;28;20033;-77
2021/06/25 05:14:33;;;;;;;31.75;8.73;;;;;;;31.91;50.67;97437.00;5029399;28;20087;-78
2021/06/25 05:16:59;;;;;;;41.47;8.57;;;;;;;32.66;48.45;97438.31;5030744;28;20421;-78
2021/06/25 05:19:24;;;;;;;34.00;9.20;;;;;;;33.42;46.71;97428.28;5028821;28;20029;-78
2021/06/25 05:21:50;;;;;;;33.63;8.68;;;;;;;33.59;45.04;97435.66;5045622;28;20033;-79
2021/06/25 05:24:15;;;;;;;49.33;8.77;;;;;;;33.76;44.06;97433.81;5029079;28;20512;-77
2021/06/25 05:26:41;;;;;;;32.67;9.60;;;;;;;33.91;43.39;97446.31;5029217;28;20064;-77
2021/06/25 05:29:06;;;;;;;39.67;8.63;;;;;;;33.82;43.37;97432.00;5029309;28;20041;-77
2021/06/25 05:31:32;;;;;;;37.72;8.43;;;;;;;33.42;44.09;97437.44;5030315;28;20033;-77
2021/06/25 05:33:59;;;;;;;36.50;8.30;;;;;;;33.78;42.87;97433.56;5045193;28;20060;-78
2021/06/25 05:36:24;;;;;;;24.50;8.20;;;;;;;34.75;41.27;97429.72;5046004;28;20029;-78
2021/06/25 05:38:50;;;;;;;27.92;8.43;;;;;;;35.08;40.72;97445.56;5045639;28;20064;-78
2021/06/25 05:41:16;;;;;;;30.25;8.43;;;;;;;35.71;39.00;97417.38;5029396;28;20049;-78
2021/06/25 05:43:42;;;;;;;42.75;8.55;;;;;;;35.73;39.12;97439.41;5045141;28;20104;-78
2021/06/25 05:46:11;;;;;;;38.28;8.63;;;;;;;35.50;39.16;97437.63;5028784;28;20029;-78
2021/06/25 05:48:37;;;;;;;42.13;9.73;;;;;;;35.78;38.86;97437.50;5028477;28;20032;-79
2021/06/25 05:51:03;;;;;;;40.80;9.15;;;;;;;36.59;37.40;97429.34;5045557;28;20026;-79
2021/06/25 05:53:30;;;;;;;38.35;8.02;;;;;;;37.02;36.40;97432.03;5030364;28;20090;-78
2021/06/25 05:55:56;;;;;;;38.53;7.82;;;;;;;37.92;35.26;97436.59;5028698;28;20037;-78
2021/06/25 05:58:22;;;;;;;37.63;8.35;;;;;;;38.38;34.95;97423.69;5044955;28;20029;-77
2021/06/25 06:00:47;;;;;;;29.63;7.75;;;;;;;39.02;33.85;97440.88;5028087;28;20087;-77
2021/06/25 06:03:13;;;;;;;35.95;8.40;;;;;;;39.87;32.13;97447.56;5044212;28;20398;-78
2021/06/25 06:05:38;;;;;;;35.67;8.02;;;;;;;38.83;33.34;97442.53;5044877;28;20485;-78
2021/06/25 06:08:04;;;;;;;36.72;8.38;;;;;;;38.95;34.04;97452.34;5028953;28;20397;-77
2021/06/25 06:10:30;;;;;;;21.80;7.53;;;;;;;39.05;33.59;97445.91;5027514;28;20102;-77
2021/06/25 06:12:56;;;;;;;34.90;8.23;;;;;;;38.71;33.59;97456.75;5027685;28;20439;-77
2021/06/25 06:15:22;;;;;;;27.42;7.60;;;;;;;38.65;34.63;97438.28;5029472;28;20035;-77
2021/06/25 06:17:48;;;;;;;27.30;7.60;;;;;;;39.06;33.44;97460.75;5029308;28;20076;-77
2021/06/25 06:20:20;;;;;;;36.75;7.75;;;;;;;39.52;32.66;97454.91;5029886;28;20061;-77
2021/06/25 06:33:46;;;;;;;22.63;7.35;;;;;;;40.38;30.77;97460.28;5029241;28;20591;-78
2021/06/25 06:36:22;;;;;;;34.00;6.57;;;;;;;40.50;30.71;97468.38;5044236;28;20025;-78
2021/06/25 06:38:49;;;;;;;22.45;6.40;;;;;;;40.03;30.88;97464.03;5043406;28;20026;-78
2021/06/25 06:41:14;;;;;;;35.88;7.57;;;;;;;41.09;29.84;97463.56;5044368;28;20037;-78
2021/06/25 06:43:41;;;;;;;30.45;8.52;;;;;;;40.44;30.26;97455.50;5027650;28;20029;-78
2021/06/25 06:46:09;;;;;;;23.15;7.32;;;;;;;40.54;30.42;97466.69;5027464;28;20025;-78
2021/06/25 06:48:38;;;;;;;27.33;7.35;;;;;;;39.74;31.71;97453.75;5043562;28;20037;-78
2021/06/25 06:51:04;;;;;;;24.55;6.07;;;;;;;40.37;31.02;97458.59;5029037;28;20036;-78
2021/06/25 06:53:31;;;;;;;23.00;6.93;;;;;;;39.47;31.81;97462.47;5028023;28;20037;-78
2021/06/25 06:55:57;;;;;;;26.88;7.07;;;;;;;40.18;30.26;97445.53;5027144;28;20473;-78
2021/06/25 06:58:23;;;;;;;22.60;6.82;;;;;;;39.90;30.75;97441.41;5044224;28;20499;-78
2021/06/25 07:00:48;;;;;;;19.55;6.45;;;;;;;39.90;30.81;97435.78;5028369;28;20040;-78
2021/06/25 07:03:14;;;;;;;25.83;7.18;;;;;;;40.93;29.92;97450.75;5044062;28;20033;-78
2021/06/25 07:05:40;;;;;;;25.60;7.35;;;;;;;41.38;29.12;97448.75;5043827;28;20037;-78
2021/06/25 07:08:05;;;;;;;30.20;7.32;;;;;;;40.67;30.22;97463.25;5043531;28;20095;-78
2021/06/25 07:10:31;;;;;;;40.72;7.82;;;;;;;40.80;29.97;97459.78;5043770;28;20025;-78
2021/06/25 07:12:56;;;;;;;30.77;7.65;;;;;;;41.90;28.64;97445.97;5044074;28;20550;-78
2021/06/25 07:15:22;;;;;;;31.30;7.10;;;;;;;42.94;27.77;97443.25;5044393;28;20086;-78
2021/06/25 07:17:48;;;;;;;27.52;6.88;;;;;;;43.87;26.51;97451.56;5044140;28;20075;-78
2021/06/25 07:20:14;;;;;;;24.27;6.88;;;;;;;44.97;25.83;97467.38;5027260;28;20033;-78
2021/06/25 07:22:40;;;;;;;29.15;6.75;;;;;;;45.19;25.68;97452.41;5027663;28;20057;-78
2021/06/25 07:25:08;;;;;;;34.75;7.47;;;;;;;45.17;25.60;97449.06;5043838;28;20037;-77
2021/06/25 07:27:36;;;;;;;46.28;7.80;;;;;;;45.03;25.15;97459.59;5044334;28;20037;-77
2021/06/25 07:30:03;;;;;;;23.48;7.05;;;;;;;43.79;26.82;97445.81;5027316;28;20175;-77
2021/06/25 07:32:30;;;;;;;29.92;7.22;;;;;;;43.45;26.95;97440.47;5028721;28;20036;-77
2021/06/25 07:34:55;;;;;;;32.08;7.45;;;;;;;44.12;26.75;97439.78;5028826;28;20029;-77
2021/06/25 07:37:21;;;;;;;20.90;6.53;;;;;;;44.92;25.73;97456.16;5027588;28;20034;-77
2021/06/25 07:39:47;;;;;;;34.65;7.22;;;;;;;45.70;25.10;97440.69;5044406;28;20041;-77
2021/06/25 07:42:12;;;;;;;29.83;6.30;;;;;;;43.99;25.77;97432.16;5044288;28;20077;-77
2021/06/25 07:44:38;;;;;;;26.73;7.22;;;;;;;42.58;27.55;97437.28;5028519;28;20026;-77
2021/06/25 07:47:03;;;;;;;34.13;8.63;;;;;;;43.33;27.41;97440.09;5043878;28;20471;-77
2021/06/25 07:49:29;;;;;;;40.50;7.75;;;;;;;44.45;26.56;97443.34;5026877;28;20484;-77
2021/06/25 07:51:55;;;;;;;30.85;8.27;;;;;;;44.99;26.15;97447.25;5043599;28;20079;-77
2021/06/25 07:54:20;;;;;;;29.23;6.97;;;;;;;45.03;25.43;97439.81;5028536;28;20034;-77
2021/06/25 07:56:46;;;;;;;30.13;7.38;;;;;;;45.92;25.27;97449.13;5027415;28;20455;-77
2021/06/25 07:59:12;;;;;;;30.08;7.28;;;;;;;46.51;23.17;97433.59;5027970;28;20033;-78
2021/06/25 08:01:37;;;;;;;38.95;6.90;;;;;;;46.49;23.12;97427.41;5028644;28;20041;-77
2021/06/25 08:04:03;;;;;;;43.83;8.80;;;;;;;45.97;23.55;97423.50;5047428;28;20029;-77
2021/06/25 08:06:29;;;;;;;29.20;6.72;;;;;;;45.64;24.73;97437.13;5047472;28;20413;-78
2021/06/25 08:08:55;;;;;;;26.30;7.30;;;;;;;45.26;25.96;97439.50;5048125;28;20025;-78
2021/06/25 08:11:21;;;;;;;28.30;7.35;;;;;;;46.17;24.37;97431.47;5047763;28;20040;-77
2021/06/25 08:13:46;;;;;;;43.35;7.72;;;;;;;46.88;23.50;97435.00;5032225;28;20416;-77
2021/06/25 08:16:12;;;;;;;35.22;7.93;;;;;;;46.74;24.07;97432.28;5047475;28;20033;-78
2021/06/25 08:18:38;;;;;;;45.53;8.15;;;;;;;46.63;24.57;97418.78;5047421;28;20053;-78
2021/06/25 08:21:04;;;;;;;33.90;6.53;;;;;;;46.67;23.67;97419.78;5030833;28;20084;-77
2021/06/25 08:23:29;;;;;;;25.13;7.53;;;;;;;46.40;23.48;97409.53;5047524;28;20516;-78
2021/06/25 08:25:55;;;;;;;31.05;8.15;;;;;;;47.15;22.96;97431.88;5047699;28;20116;-77
2021/06/25 08:28:21;;;;;;;34.00;7.30;;;;;;;46.71;23.87;97415.09;5047178;28;20133;-77
2021/06/25 08:30:46;;;;;;;35.40;7.85;;;;;;;47.11;23.59;97416.66;5046872;28;20034;-77
2021/06/25 08:33:12;;;;;;;43.08;8.35;;;;;;;46.99;22.51;97416.50;5046624;28;20053;-77
2021/06/25 08:35:37;;;;;;;23.02;7.03;;;;;;;46.30;24.38;97413.50;5030370;28;20458;-77
2021/06/25 08:38:03;;;;;;;29.90;7.03;;;;;;;46.04;24.01;97406.06;5046783;28;20033;-78
2021/06/25 08:40:29;;;;;;;24.50;6.78;;;;;;;45.52;24.39;97416.25;5030171;28;20168;-78
2021/06/25 08:42:54;;;;;;;37.70;7.90;;;;;;;46.79;24.13;97403.00;5031517;28;20083;-77
2021/06/25 08:45:20;;;;;;;26.30;6.68;;;;;;;48.02;22.41;97413.53;5033726;28;20037;-77
2021/06/25 08:47:50;;;;;;;28.65;8.48;;;;;;;47.46;22.61;97414.66;5032694;28;20033;-77
2021/06/25 08:50:25;;;;;;;34.30;8.00;;;;;;;46.80;23.64;97418.81;5032262;28;20052;-77
2021/06/25 08:52:53;;;;;;;33.92;8.10;;;;;;;47.23;22.81;97402.66;5032075;28;20029;-77
2021/06/25 08:55:20;;;;;;;31.73;7.47;;;;;;;47.77;22.50;97408.75;5033382;28;20029;-77
2021/06/25 08:57:45;;;;;;;28.25;7.78;;;;;;;48.55;21.74;97412.09;5032406;28;20033;-77
2021/06/25 09:00:14;;;;;;;29.15;7.95;;;;;;;48.93;21.62;97401.50;5033425;28;20409;-77
2021/06/25 09:02:40;;;;;;;28.23;7.10;;;;;;;48.98;20.76;97397.63;5049306;28;20404;-77
2021/06/25 09:05:08;;;;;;;32.85;7.38;;;;;;;48.16;22.08;97394.25;5031981;28;20036;-78
2021/06/25 09:07:44;;;;;;;24.27;7.00;;;;;;;47.82;22.49;97400.88;5031995;28;20064;-77
2021/06/25 09:10:13;;;;;;;108.00;11.05;;;;;;;48.84;22.63;97406.41;5031976;28;20021;-78
2021/06/25 09:12:40;;;;;;;33.05;7.13;;;;;;;49.02;22.57;97402.25;5031879;28;20029;-78
2021/06/25 09:15:14;;;;;;;36.08;8.98;;;;;;;50.20;20.70;97389.16;5048693;28;20029;-78
2021/06/25 09:18:10;;;;;;;28.10;7.63;;;;;;;51.34;19.50;97397.31;5048259;28;20113;-78
2021/06/25 09:20:37;;;;;;;34.28;7.90;;;;;;;51.42;18.83;97387.75;5048106;28;20397;-77
2021/06/25 09:23:08;;;;;;;41.70;7.90;;;;;;;50.37;18.98;97365.28;5032513;28;20059;-78
2021/06/25 09:25:54;;;;;;;37.55;8.73;;;;;;;47.78;20.55;97362.16;5031111;28;20037;-77
2021/06/25 09:28:34;;;;;;;42.05;8.30;;;;;;;46.82;21.85;97366.31;5030524;28;20130;-78
2021/06/25 09:31:00;;;;;;;37.80;7.57;;;;;;;48.66;20.46;97377.28;5048412;28;20028;-78
2021/06/25 09:33:25;;;;;;;42.75;7.88;;;;;;;48.34;19.87;97352.41;5032053;28;20025;-78
2021/06/25 09:35:57;;;;;;;33.13;7.15;;;;;;;47.85;19.72;97354.78;5048035;28;20026;-78
2021/06/25 09:38:36;;;;;;;28.80;7.65;;;;;;;48.73;19.89;97356.84;5032922;28;20025;-78
2021/06/25 09:41:02;;;;;;;49.97;8.35;;;;;;;49.35;19.99;97362.47;5031240;28;20056;-78
2021/06/25 09:43:34;;;;;;;39.05;7.47;;;;;;;49.72;19.56;97367.13;5048123;28;20120;-78
2021/06/25 09:46:03;;;;;;;44.78;8.35;;;;;;;48.54;19.78;97360.13;5047689;28;20098;-78
2021/06/25 09:48:49;;;;;;;41.10;7.55;;;;;;;48.58;20.94;97366.78;5047269;28;20040;-78
2021/06/25 09:51:14;;;;;;;33.05;7.55;;;;;;;49.32;21.16;97366.88;5047216;28;20029;-78
2021/06/25 10:13:38;;;;;;;36.53;8.27;;;;;;;51.24;18.35;97348.47;5115195;28;20042;-83
2021/06/25 10:23:20;;;;;;;47.72;7.70;;;;;;;51.71;16.21;97335.16;5110862;28;20035;-83
2021/06/25 10:25:46;;;;;;;38.70;7.07;;;;;;;51.97;15.41;97337.44;5093340;28;20179;-83
2021/06/25 10:28:15;;;;;;;37.58;6.97;;;;;;;53.03;15.81;97340.03;5110602;28;20067;-84
2021/06/25 10:30:41;;;;;;;29.13;7.22;;;;;;;52.94;15.69;97331.66;5083474;28;20027;-83
2021/06/25 10:33:07;;;;;;;34.55;7.40;;;;;;;52.97;16.22;97347.28;5095010;28;20498;-83
2021/06/25 10:35:33;;;;;;;38.15;7.53;;;;;;;53.52;15.86;97349.66;5093394;28;20034;-83
2021/06/25 10:37:58;;;;;;;36.10;6.80;;;;;;;53.48;15.99;97348.75;5110484;28;20015;-84
2021/06/25 10:40:26;;;;;;;43.45;7.57;;;;;;;53.25;16.22;97347.03;5110395;28;20084;-83
2021/06/25 10:42:57;;;;;;;40.03;7.63;;;;;;;53.21;16.74;97340.41;5090504;28;20059;-83
2021/06/25 10:45:43;;;;;;;36.40;7.63;;;;;;;52.62;16.57;97340.69;5074006;28;20035;-83
2021/06/25 10:48:09;;;;;;;34.30;7.05;;;;;;;51.14;16.38;97327.00;5090322;28;20559;-82
2021/06/25 10:50:36;;;;;;;36.88;7.65;;;;;;;49.34;18.63;97315.34;5090115;28;20035;-82
2021/06/25 10:53:19;;;;;;;36.47;6.68;;;;;;;48.63;19.22;97306.94;5073789;28;20074;-83
2021/06/25 10:55:59;;;;;;;36.65;6.65;;;;;;;49.56;18.39;97320.59;5090266;28;20031;-82
2021/06/25 10:58:25;;;;;;;38.33;7.00;;;;;;;48.35;20.42;97305.81;5079620;28;20075;-82
2021/06/25 11:00:57;;;;;;;32.58;6.97;;;;;;;48.03;22.36;97318.66;5109405;28;20517;-82
2021/06/25 11:03:38;;;;;;;26.55;6.05;;;;;;;49.77;20.51;97318.50;5109914;28;20110;-83
2021/06/25 11:06:10;;;;;;;35.65;6.85;;;;;;;49.90;20.63;97322.19;5077633;28;20026;-83
2021/06/25 11:08:38;;;;;;;35.83;8.65;;;;;;;51.23;18.54;97321.94;5092033;28;20076;-83
2021/06/25 11:11:04;;;;;;;31.38;6.15;;;;;;;52.05;17.39;97322.19;5068019;28;20093;-83
2021/06/25 11:13:34;;;;;;;38.08;7.30;;;;;;;53.18;17.11;97336.25;5076381;28;20032;-83
2021/06/25 11:16:03;;;;;;;31.65;6.70;;;;;;;51.46;18.29;97317.34;5075933;28;20042;-83
2021/06/25 11:18:30;;;;;;;37.80;7.82;;;;;;;51.92;18.48;97332.03;5060183;28;20020;-83
2021/06/25 11:21:00;;;;;;;45.72;7.45;;;;;;;51.59;18.58;97325.81;5077980;28;20035;-83
2021/06/25 11:23:38;;;;;;;41.30;7.47;;;;;;;50.40;19.42;97322.66;5081143;28;20079;-83
2021/06/25 11:26:04;;;;;;;29.17;6.78;;;;;;;50.84;19.56;97334.22;5102985;28;20494;-83
2021/06/25 11:28:30;;;;;;;41.08;6.90;;;;;;;51.15;18.97;97322.97;5093666;28;20376;-83
2021/06/25 11:31:20;;;;;;;34.67;6.90;;;;;;;50.22;20.64;97312.69;5094259;28;20034;-83
2021/06/25 11:33:49;;;;;;;42.10;7.07;;;;;;;50.65;19.59;97320.63;5094344;28;20494;-82
2021/06/25 11:36:23;;;;;;;41.63;6.72;;;;;;;50.83;19.52;97318.31;5093806;28;20023;-83
2021/06/25 11:39:04;;;;;;;37.65;6.32;;;;;;;51.31;19.33;97315.28;5101766;28;20101;-82
2021/06/25 11:41:48;;;;;;;29.13;6.68;;;;;;;51.38;19.01;97306.91;5075030;28;20050;-83
2021/06/25 11:44:16;;;;;;;34.97;6.75;;;;;;;49.85;20.39;97302.50;5093321;28;20032;-83
2021/06/25 11:46:59;;;;;;;31.48;7.03;;;;;;;49.66;20.69;97307.94;5075714;28;20403;-83
2021/06/25 11:49:43;;;;;;;29.85;6.50;;;;;;;49.13;20.71;97298.31;5052968;28;20498;-83
2021/06/25 11:52:20;;;;;;;25.08;6.60;;;;;;;50.00;20.50;97298.97;5080962;28;20027;-83
2021/06/25 11:54:57;;;;;;;29.17;6.30;;;;;;;50.06;20.17;97303.22;5078190;28;20031;-82
2021/06/25 11:57:28;;;;;;;34.13;6.70;;;;;;;49.68;21.38;97314.13;5058689;28;20398;-82
2021/06/25 12:00:15;;;;;;;31.73;6.03;;;;;;;48.80;22.49;97308.78;5091861;28;20031;-83